Time;durP1;ratioP1;P1;durP2;ratioP2;P2;SDS_P1;SDS_P2;PMS_P1;PMS_P2;Temp;Humidity;BMP_temperature;BMP_pressure;BME280_temperature;BME280_humidity;BME280_pressure;Samples;Min_cycle;Max_cycle;Signal;HPM_P1;HPM_P2
2020/12/22 00:00:13;;;;;;;2.87;2.67;;;9.60;99.90;;;;;;5002672;28;20230;-77
2020/12/22 00:02:43;;;;;;;2.67;2.50;;;9.70;99.90;;;;;;5013614;28;20747;-76
2020/12/22 00:05:10;;;;;;;2.73;2.53;;;9.70;99.90;;;;;;5012021;28;20219;-77
2020/12/22 00:07:36;;;;;;;2.60;2.50;;;9.80;99.90;;;;;;5004457;28;20248;-76
2020/12/22 00:10:04;;;;;;;7.73;7.27;;;9.90;99.90;;;;;;5007699;28;20243;-78
2020/12/22 00:12:31;;;;;;;6.23;5.93;;;9.90;99.90;;;;;;5009137;28;20570;-77
2020/12/22 00:14:58;;;;;;;7.80;7.40;;;10.00;99.90;;;;;;5010059;28;20208;-77
2020/12/22 00:17:24;;;;;;;7.70;7.30;;;10.00;99.90;;;;;;5016540;28;20233;-78
2020/12/22 00:19:50;;;;;;;2.50;2.40;;;10.10;99.90;;;;;;5011793;28;20224;-77
2020/12/22 00:22:17;;;;;;;2.60;2.50;;;10.10;99.90;;;;;;5012994;28;20228;-77
2020/12/22 00:24:43;;;;;;;3.00;2.80;;;10.10;99.90;;;;;;5015989;28;20204;-77
2020/12/22 00:27:10;;;;;;;2.40;2.30;;;10.10;99.90;;;;;;5007042;28;20625;-77
2020/12/22 00:29:37;;;;;;;2.43;2.30;;;10.20;99.90;;;;;;5013578;28;20239;-76
2020/12/22 00:32:03;;;;;;;2.80;2.60;;;10.20;99.90;;;;;;5008900;28;20604;-78
2020/12/22 00:34:30;;;;;;;2.70;2.30;;;10.20;99.90;;;;;;5007766;28;20199;-77
2020/12/22 00:36:59;;;;;;;2.50;2.40;;;10.20;99.90;;;;;;5008809;28;20189;-78
2020/12/22 00:39:26;;;;;;;2.50;2.40;;;10.20;99.90;;;;;;5014183;28;20286;-77
2020/12/22 00:41:52;;;;;;;2.30;2.20;;;10.30;99.90;;;;;;5011683;28;20262;-76
2020/12/22 00:44:19;;;;;;;2.47;2.33;;;10.30;99.90;;;;;;5015824;28;20199;-77
2020/12/22 00:46:46;;;;;;;2.87;2.67;;;10.30;99.90;;;;;;5013172;28;20586;-77
2020/12/22 00:49:13;;;;;;;2.70;2.50;;;10.30;99.90;;;;;;5009281;28;20708;-76
2020/12/22 00:51:39;;;;;;;2.57;2.47;;;10.30;99.90;;;;;;5009700;28;20192;-78
2020/12/22 00:54:06;;;;;;;2.57;2.43;;;10.30;99.90;;;;;;5007681;28;20211;-78
2020/12/22 00:56:32;;;;;;;2.57;2.47;;;10.30;99.90;;;;;;5012857;28;20587;-76
2020/12/22 00:59:04;;;;;;;2.50;2.40;;;10.40;99.90;;;;;;5005500;28;20212;-78
2020/12/22 01:01:30;;;;;;;2.50;2.40;;;10.40;99.90;;;;;;5009142;28;20197;-78
2020/12/22 01:03:58;;;;;;;2.60;2.50;;;10.40;99.90;;;;;;5008751;28;20239;-76
2020/12/22 01:06:24;;;;;;;2.40;2.30;;;10.40;99.90;;;;;;5011706;28;20215;-77
2020/12/22 01:08:50;;;;;;;2.40;2.30;;;10.40;99.90;;;;;;5007029;28;20212;-77
2020/12/22 01:11:17;;;;;;;2.67;2.57;;;10.40;99.90;;;;;;5006744;28;20267;-77
2020/12/22 01:13:43;;;;;;;2.53;2.43;;;10.50;99.90;;;;;;5016909;28;20239;-77
2020/12/22 01:16:10;;;;;;;2.40;2.30;;;10.40;99.90;;;;;;5007238;28;20235;-78
2020/12/22 01:18:36;;;;;;;2.50;2.40;;;10.50;99.90;;;;;;5007357;28;20226;-77
2020/12/22 01:21:03;;;;;;;2.40;2.30;;;10.50;99.90;;;;;;5015325;28;20216;-77
2020/12/22 01:23:29;;;;;;;2.40;2.30;;;10.50;99.90;;;;;;5010472;28;20221;-77
2020/12/22 01:25:55;;;;;;;2.60;2.50;;;10.50;99.90;;;;;;5012138;28;20236;-77
2020/12/22 01:28:22;;;;;;;2.40;2.30;;;10.50;99.90;;;;;;5006594;28;20227;-76
2020/12/22 01:30:48;;;;;;;2.77;2.57;;;10.60;99.90;;;;;;5008334;28;20200;-77
2020/12/22 01:33:14;;;;;;;2.50;2.40;;;10.60;99.90;;;;;;5010359;28;20193;-77
2020/12/22 01:35:40;;;;;;;2.80;2.60;;;10.60;99.90;;;;;;5008332;28;20282;-76
2020/12/22 01:38:07;;;;;;;2.47;2.37;;;10.70;99.90;;;;;;5006960;28;20244;-78
2020/12/22 01:40:34;;;;;;;2.50;2.40;;;10.70;99.90;;;;;;5005818;28;20252;-77
2020/12/22 01:43:00;;;;;;;2.57;2.47;;;10.70;99.90;;;;;;5011417;28;20243;-77
2020/12/22 01:45:26;;;;;;;2.37;2.27;;;10.70;99.90;;;;;;5008337;28;20231;-77
2020/12/22 01:47:52;;;;;;;2.30;2.20;;;10.70;99.90;;;;;;5008223;28;20255;-77
2020/12/22 01:50:19;;;;;;;2.30;2.20;;;10.80;99.90;;;;;;5006629;28;20601;-76
2020/12/22 01:52:46;;;;;;;2.30;2.20;;;10.70;99.90;;;;;;5010715;28;20685;-77
2020/12/22 01:55:13;;;;;;;2.40;2.30;;;10.70;99.90;;;;;;5012825;28;20695;-77
2020/12/22 01:57:39;;;;;;;2.30;2.20;;;10.70;99.90;;;;;;5014439;28;20243;-77
2020/12/22 02:00:07;;;;;;;2.40;2.30;;;10.70;99.90;;;;;;5010486;28;20200;-77
2020/12/22 02:02:34;;;;;;;2.30;2.20;;;10.70;99.90;;;;;;5003005;28;20255;-77
2020/12/22 02:05:01;;;;;;;2.40;2.30;;;10.70;99.90;;;;;;5007829;28;20240;-76
2020/12/22 02:07:28;;;;;;;2.50;2.40;;;10.80;99.90;;;;;;5011764;28;20232;-78
2020/12/22 02:09:54;;;;;;;2.47;2.37;;;10.70;99.90;;;;;;5008517;28;20224;-78
2020/12/22 02:12:21;;;;;;;2.40;2.30;;;10.80;99.90;;;;;;5005002;28;20669;-77
2020/12/22 02:14:48;;;;;;;2.43;2.33;;;10.80;99.90;;;;;;5010293;28;20239;-76
2020/12/22 02:17:14;;;;;;;2.33;2.23;;;10.80;99.90;;;;;;5007583;28;20223;-77
2020/12/22 02:19:41;;;;;;;4.37;4.17;;;10.90;99.90;;;;;;5005537;28;20223;-77
2020/12/22 02:22:08;;;;;;;9.80;9.30;;;10.90;99.90;;;;;;5014808;28;20204;-78
2020/12/22 02:24:35;;;;;;;8.70;8.30;;;10.90;99.90;;;;;;5015481;28;20207;-78
2020/12/22 02:27:04;;;;;;;6.70;6.30;;;10.90;99.90;;;;;;5006381;28;20260;-77
2020/12/22 02:29:30;;;;;;;6.23;5.93;;;10.90;99.90;;;;;;5006719;28;20220;-77
2020/12/22 02:31:58;;;;;;;8.80;8.30;;;10.90;99.90;;;;;;5004789;28;20238;-78
2020/12/22 02:34:24;;;;;;;6.80;6.40;;;10.90;99.90;;;;;;5006156;28;20574;-78
2020/12/22 02:36:50;;;;;;;6.87;6.47;;;10.90;99.90;;;;;;5006204;28;20649;-78
2020/12/22 02:39:17;;;;;;;2.50;2.40;;;10.90;99.90;;;;;;5007041;28;20236;-78
2020/12/22 02:41:44;;;;;;;3.77;3.57;;;10.90;99.90;;;;;;5008965;28;20264;-76
2020/12/22 02:44:10;;;;;;;7.93;7.53;;;10.90;99.90;;;;;;5003881;28;20228;-77
2020/12/22 02:46:36;;;;;;;8.43;8.03;;;10.90;99.90;;;;;;5008200;28;20262;-78
2020/12/22 02:49:04;;;;;;;6.33;6.03;;;10.90;99.90;;;;;;5006497;28;20244;-78
2020/12/22 02:51:30;;;;;;;8.40;8.00;;;10.90;99.90;;;;;;5015742;28;20193;-78
2020/12/22 02:53:57;;;;;;;8.60;8.20;;;10.90;99.90;;;;;;5003484;28;20700;-77
2020/12/22 02:56:24;;;;;;;8.77;8.30;;;10.90;99.90;;;;;;5012200;28;20228;-78
2020/12/22 02:58:51;;;;;;;8.10;7.60;;;11.00;99.90;;;;;;5009676;28;20652;-78
2020/12/22 03:01:18;;;;;;;4.80;4.60;;;11.00;99.90;;;;;;5006974;28;20192;-77
2020/12/22 03:03:44;;;;;;;2.80;2.70;;;11.00;99.90;;;;;;5006753;28;20196;-76
2020/12/22 03:06:11;;;;;;;2.73;2.63;;;11.00;99.90;;;;;;5005564;28;20225;-78
2020/12/22 03:08:37;;;;;;;7.13;6.77;;;11.00;99.90;;;;;;5009801;28;20248;-78
2020/12/22 03:11:04;;;;;;;3.03;2.90;;;11.00;99.90;;;;;;5006739;28;20197;-78
2020/12/22 03:13:31;;;;;;;2.47;2.37;;;11.00;99.90;;;;;;5009416;28;20228;-76
2020/12/22 03:15:57;;;;;;;7.47;7.07;;;11.00;99.90;;;;;;5004870;28;20235;-77
2020/12/22 03:18:24;;;;;;;7.63;7.23;;;11.10;99.90;;;;;;5005081;28;20625;-76
2020/12/22 03:20:50;;;;;;;4.20;4.00;;;11.10;99.90;;;;;;5010141;28;20712;-78
2020/12/22 03:23:16;;;;;;;2.30;2.20;;;11.00;99.90;;;;;;5005820;28;20718;-77
2020/12/22 03:25:42;;;;;;;2.20;2.10;;;11.00;99.90;;;;;;5009408;28;20666;-77
2020/12/22 03:28:08;;;;;;;2.30;2.20;;;11.00;99.90;;;;;;5011216;28;20656;-77
2020/12/22 03:30:36;;;;;;;5.23;4.93;;;11.00;99.90;;;;;;5001940;28;20605;-78
2020/12/22 03:33:02;;;;;;;2.40;2.30;;;10.90;99.90;;;;;;5009834;28;20197;-76
2020/12/22 03:35:29;;;;;;;2.40;2.30;;;10.90;99.90;;;;;;5005396;28;20687;-76
2020/12/22 03:37:56;;;;;;;2.30;2.20;;;11.00;99.90;;;;;;5004770;28;20586;-76
2020/12/22 03:40:23;;;;;;;2.30;2.20;;;11.00;99.90;;;;;;5004574;28;20223;-78
2020/12/22 03:42:49;;;;;;;2.30;2.20;;;11.00;99.90;;;;;;5012577;28;20204;-77
2020/12/22 03:45:16;;;;;;;2.40;2.30;;;11.10;99.90;;;;;;5014473;28;20204;-77
2020/12/22 03:47:44;;;;;;;2.30;2.20;;;11.10;99.90;;;;;;5010313;28;20307;-78
2020/12/22 03:50:10;;;;;;;2.20;2.10;;;11.10;99.90;;;;;;5013418;28;20197;-77
2020/12/22 03:52:37;;;;;;;2.40;2.30;;;11.10;99.90;;;;;;5013642;28;20227;-77
2020/12/22 03:55:03;;;;;;;2.50;2.40;;;11.10;99.90;;;;;;5008513;28;20204;-79
2020/12/22 03:57:30;;;;;;;2.30;2.20;;;11.20;99.90;;;;;;5016672;28;20235;-77
2020/12/22 03:59:56;;;;;;;2.40;2.30;;;11.20;99.90;;;;;;5016348;28;20251;-78
2020/12/22 04:02:22;;;;;;;2.50;2.40;;;11.20;99.90;;;;;;5018060;28;20173;-77
2020/12/22 04:04:49;;;;;;;2.40;2.30;;;11.20;99.90;;;;;;5015735;28;20205;-77
2020/12/22 04:07:16;;;;;;;2.40;2.30;;;11.20;99.90;;;;;;5015161;28;20590;-78
2020/12/22 04:09:42;;;;;;;2.80;2.70;;;11.30;99.90;;;;;;5014028;28;20216;-78
2020/12/22 04:12:08;;;;;;;3.33;3.20;;;11.20;99.90;;;;;;5016724;28;20198;-77
2020/12/22 04:14:34;;;;;;;2.63;2.53;;;11.20;99.90;;;;;;5016516;28;20201;-77
2020/12/22 04:17:00;;;;;;;2.50;2.40;;;11.20;99.90;;;;;;5008796;28;20204;-77
2020/12/22 04:19:27;;;;;;;6.00;5.70;;;11.20;99.90;;;;;;5019573;28;20204;-78
2020/12/22 04:21:54;;;;;;;2.33;2.23;;;11.20;99.90;;;;;;5018008;28;20213;-78
2020/12/22 04:24:20;;;;;;;2.40;2.20;;;11.20;99.90;;;;;;5018076;28;20219;-78
2020/12/22 04:26:46;;;;;;;2.20;2.10;;;11.20;99.90;;;;;;5015807;28;20231;-78
2020/12/22 04:29:12;;;;;;;2.30;2.20;;;11.20;99.90;;;;;;5014937;28;20693;-78
2020/12/22 04:31:39;;;;;;;2.40;2.30;;;11.20;99.90;;;;;;5009726;28;20224;-77
2020/12/22 04:34:05;;;;;;;2.30;2.20;;;11.20;99.90;;;;;;5010028;28;20677;-78
2020/12/22 04:36:32;;;;;;;8.77;8.33;;;11.20;99.90;;;;;;4993140;28;20284;-77
2020/12/22 04:38:59;;;;;;;2.37;2.27;;;11.20;99.90;;;;;;4999658;28;20213;-77
2020/12/22 04:41:25;;;;;;;2.00;2.00;;;11.20;99.90;;;;;;5017092;28;20760;-77
2020/12/22 04:43:52;;;;;;;2.20;2.10;;;11.30;99.90;;;;;;5009499;28;20267;-78
2020/12/22 04:46:20;;;;;;;2.40;2.30;;;11.30;99.90;;;;;;5014906;28;20219;-76
2020/12/22 04:48:52;;;;;;;2.50;2.40;;;11.30;99.90;;;;;;5012160;28;20720;-78
2020/12/22 04:51:19;;;;;;;2.50;2.40;;;11.30;99.90;;;;;;5013574;28;20315;-79
2020/12/22 04:53:46;;;;;;;2.43;2.33;;;11.30;99.90;;;;;;5014868;28;20200;-79
2020/12/22 04:56:13;;;;;;;6.53;6.13;;;11.30;99.90;;;;;;5014291;28;20228;-79
2020/12/22 04:58:40;;;;;;;2.40;2.30;;;11.30;99.90;;;;;;5009518;28;20220;-79
2020/12/22 05:01:07;;;;;;;2.40;2.30;;;11.30;99.90;;;;;;5010556;28;20205;-80
2020/12/22 05:03:33;;;;;;;2.40;2.30;;;11.40;99.90;;;;;;5015338;28;20248;-79
2020/12/22 05:05:59;;;;;;;2.30;2.20;;;11.40;99.90;;;;;;5014941;28;20311;-79
2020/12/22 05:08:26;;;;;;;2.60;2.50;;;11.30;99.90;;;;;;5014628;28;20385;-77
2020/12/22 05:10:52;;;;;;;3.47;3.27;;;11.40;99.90;;;;;;5012417;28;20236;-79
2020/12/22 05:13:21;;;;;;;12.20;11.50;;;11.40;99.90;;;;;;5012444;28;20211;-77
2020/12/22 05:15:49;;;;;;;2.70;2.50;;;11.40;99.90;;;;;;5012492;28;20224;-77
2020/12/22 05:18:16;;;;;;;2.30;2.20;;;11.40;99.90;;;;;;5016335;28;20243;-77
2020/12/22 05:20:44;;;;;;;2.60;2.50;;;11.40;99.90;;;;;;5002720;28;20210;-76
2020/12/22 05:23:13;;;;;;;5.30;5.00;;;11.40;99.90;;;;;;5015230;28;20192;-78
2020/12/22 05:25:41;;;;;;;4.80;4.60;;;11.40;99.90;;;;;;5007091;28;20202;-77
2020/12/22 05:28:07;;;;;;;6.13;5.83;;;11.40;99.90;;;;;;5012847;28;20311;-79
2020/12/22 05:30:36;;;;;;;5.70;5.40;;;11.40;99.90;;;;;;5011438;28;20253;-76
2020/12/22 05:33:04;;;;;;;6.53;6.13;;;11.40;99.90;;;;;;5015608;28;20197;-77
2020/12/22 05:35:34;;;;;;;8.60;8.10;;;11.40;99.90;;;;;;5004048;28;20197;-77
2020/12/22 05:38:02;;;;;;;8.20;7.73;;;11.50;99.90;;;;;;5014978;28;20235;-77
2020/12/22 05:40:29;;;;;;;2.40;2.30;;;11.50;99.90;;;;;;5003859;28;20672;-76
2020/12/22 05:42:55;;;;;;;2.50;2.30;;;11.50;99.90;;;;;;5002804;28;20668;-77
2020/12/22 05:45:21;;;;;;;2.70;2.50;;;11.50;99.90;;;;;;5013343;28;20239;-76
2020/12/22 05:47:53;;;;;;;6.80;6.40;;;11.50;99.90;;;;;;5011125;28;20307;-77
2020/12/22 05:50:21;;;;;;;3.90;3.70;;;11.60;99.90;;;;;;5011836;28;20193;-77
2020/12/22 05:52:47;;;;;;;11.00;10.40;;;11.60;99.90;;;;;;5012072;28;20200;-77
2020/12/22 05:55:25;;;;;;;2.70;2.50;;;11.60;99.90;;;;;;5015388;28;20227;-79
2020/12/22 05:58:06;;;;;;;2.50;2.40;;;11.60;99.90;;;;;;5009295;28;20693;-77
2020/12/22 06:00:32;;;;;;;2.40;2.30;;;11.60;99.90;;;;;;5011244;28;20221;-77
2020/12/22 06:03:05;;;;;;;2.30;2.20;;;11.60;99.90;;;;;;5017607;28;20197;-78
2020/12/22 06:05:35;;;;;;;2.57;2.47;;;11.70;99.90;;;;;;5006505;28;20572;-78
2020/12/22 06:08:04;;;;;;;2.97;2.77;;;11.70;99.90;;;;;;5014485;28;20279;-77
2020/12/22 06:10:31;;;;;;;2.50;2.40;;;11.70;99.90;;;;;;5005615;28;20666;-77
2020/12/22 06:12:58;;;;;;;2.37;2.27;;;11.70;99.90;;;;;;5013014;28;20645;-77
2020/12/22 06:15:25;;;;;;;2.97;2.80;;;11.70;99.90;;;;;;5012968;28;20229;-78
2020/12/22 06:17:52;;;;;;;3.73;3.53;;;11.70;99.90;;;;;;5010735;28;20263;-78
2020/12/22 06:20:21;;;;;;;6.80;6.40;;;11.80;99.90;;;;;;5015503;28;20224;-77
2020/12/22 06:22:48;;;;;;;6.23;5.93;;;11.80;99.90;;;;;;5014832;28;20216;-78
2020/12/22 06:25:18;;;;;;;7.67;7.27;;;11.80;99.90;;;;;;5014792;28;20199;-77
2020/12/22 06:27:44;;;;;;;7.50;7.00;;;11.80;99.90;;;;;;5016153;28;20228;-77
2020/12/22 06:30:12;;;;;;;5.87;5.57;;;11.80;99.90;;;;;;5014565;28;20212;-76
2020/12/22 06:32:38;;;;;;;6.40;6.10;;;11.80;99.90;;;;;;5011148;28;20227;-77
2020/12/22 06:35:27;;;;;;;7.20;6.80;;;11.90;99.90;;;;;;5014790;28;20224;-77
2020/12/22 06:37:54;;;;;;;8.77;8.27;;;11.90;99.90;;;;;;5010024;28;20216;-77
2020/12/22 06:40:40;;;;;;;9.67;9.07;;;11.90;99.90;;;;;;5014290;28;20246;-77
2020/12/22 06:43:07;;;;;;;6.17;5.87;;;11.90;99.90;;;;;;5016708;28;20204;-78
2020/12/22 06:45:36;;;;;;;5.30;5.00;;;12.00;99.90;;;;;;5014006;28;20220;-78
2020/12/22 06:48:03;;;;;;;5.33;5.07;;;12.00;99.90;;;;;;5017246;28;20255;-78
2020/12/22 06:50:40;;;;;;;5.50;5.20;;;12.00;99.90;;;;;;5011522;28;20216;-77
2020/12/22 06:53:27;;;;;;;5.33;5.03;;;12.00;99.90;;;;;;5016478;28;20196;-77
2020/12/22 06:55:54;;;;;;;5.10;4.90;;;12.00;99.90;;;;;;5013116;28;20223;-77
2020/12/22 06:58:36;;;;;;;5.70;5.40;;;12.00;99.90;;;;;;5014974;28;20224;-78
2020/12/22 07:01:30;;;;;;;5.13;4.90;;;12.00;99.90;;;;;;5009010;28;20200;-78
2020/12/22 07:04:17;;;;;;;5.80;5.50;;;12.10;99.90;;;;;;5006865;28;20200;-77
2020/12/22 07:06:51;;;;;;;4.90;4.70;;;12.10;99.90;;;;;;5009789;28;20207;-77
2020/12/22 07:09:20;;;;;;;5.50;5.20;;;12.10;99.90;;;;;;5012182;28;20706;-77
2020/12/22 07:11:47;;;;;;;5.30;5.00;;;12.10;99.90;;;;;;5009727;28;20628;-77
2020/12/22 07:14:18;;;;;;;5.50;5.20;;;12.10;99.90;;;;;;5013014;28;20195;-77
2020/12/22 07:16:51;;;;;;;6.70;6.30;;;12.10;99.90;;;;;;5014638;28;20236;-77
2020/12/22 07:19:22;;;;;;;7.43;7.03;;;12.10;99.90;;;;;;5011262;28;20255;-77
2020/12/22 07:21:50;;;;;;;7.33;6.83;;;12.20;99.90;;;;;;5013613;28;20232;-78
2020/12/22 07:24:17;;;;;;;6.80;6.40;;;12.20;99.90;;;;;;5012843;28;20723;-78
2020/12/22 07:26:45;;;;;;;10.70;10.10;;;12.20;99.90;;;;;;5008064;28;20201;-78
2020/12/22 07:29:12;;;;;;;4.57;4.37;;;12.30;99.90;;;;;;5007366;28;20248;-78
2020/12/22 07:31:39;;;;;;;3.10;2.90;;;12.30;99.90;;;;;;5009508;28;20196;-77
2020/12/22 07:34:06;;;;;;;3.00;2.90;;;12.30;99.90;;;;;;5007449;28;20561;-77
2020/12/22 07:36:33;;;;;;;3.10;3.00;;;12.30;99.90;;;;;;5007640;28;20227;-77
2020/12/22 07:39:13;;;;;;;2.43;2.33;;;12.40;99.90;;;;;;5006418;28;20301;-78
2020/12/22 07:41:40;;;;;;;2.80;2.70;;;12.40;99.90;;;;;;5010573;28;20237;-77
2020/12/22 07:44:08;;;;;;;2.83;2.70;;;12.40;99.90;;;;;;5004910;28;20227;-78
2020/12/22 07:46:35;;;;;;;2.70;2.60;;;12.40;99.90;;;;;;5007972;28;20193;-78
2020/12/22 07:49:04;;;;;;;2.40;2.30;;;12.40;99.90;;;;;;5007051;28;20251;-77
2020/12/22 07:51:30;;;;;;;2.40;2.30;;;12.40;99.90;;;;;;5006492;28;20204;-77
2020/12/22 07:54:03;;;;;;;6.27;5.97;;;12.50;99.90;;;;;;5010147;28;20205;-77
2020/12/22 07:56:31;;;;;;;6.17;5.87;;;12.50;99.90;;;;;;5005409;28;20228;-77
2020/12/22 07:59:01;;;;;;;11.83;11.23;;;12.50;99.90;;;;;;5005593;28;20247;-77
2020/12/22 08:01:30;;;;;;;6.97;6.37;;;12.60;99.90;;;;;;5004244;28;20198;-77
2020/12/22 08:03:57;;;;;;;8.07;7.67;;;12.50;99.90;;;;;;5011504;28;20710;-77
2020/12/22 08:06:24;;;;;;;10.67;10.07;;;12.60;99.90;;;;;;5005752;28;20224;-77
2020/12/22 08:09:00;;;;;;;9.03;8.53;;;12.60;99.90;;;;;;5013061;28;20288;-78
2020/12/22 08:11:26;;;;;;;6.87;6.47;;;12.60;99.90;;;;;;5011140;28;20220;-77
2020/12/22 08:13:54;;;;;;;12.37;11.77;;;12.60;99.90;;;;;;5012824;28;20238;-78
2020/12/22 08:16:21;;;;;;;12.07;11.37;;;12.60;99.90;;;;;;5008623;28;20235;-77
2020/12/22 08:18:49;;;;;;;4.03;3.83;;;12.60;99.90;;;;;;5014762;28;20254;-77
2020/12/22 08:21:19;;;;;;;5.50;5.20;;;12.60;99.90;;;;;;5009112;28;20273;-77
2020/12/22 08:23:47;;;;;;;2.73;2.63;;;12.70;99.90;;;;;;5010896;28;20189;-77
2020/12/22 08:26:17;;;;;;;2.40;2.30;;;12.70;99.90;;;;;;5009811;28;20228;-78
2020/12/22 08:28:54;;;;;;;12.07;11.47;;;12.70;99.90;;;;;;5007740;28;20217;-77
2020/12/22 08:31:23;;;;;;;4.00;3.80;;;12.80;99.90;;;;;;5015465;28;20201;-77
2020/12/22 08:33:55;;;;;;;14.03;13.30;;;12.80;99.90;;;;;;5004491;28;20263;-78
2020/12/22 08:36:25;;;;;;;12.20;11.60;;;12.80;99.90;;;;;;5009804;28;20212;-77
2020/12/22 08:38:52;;;;;;;8.03;7.63;;;12.80;99.90;;;;;;5018554;28;20256;-77
2020/12/22 08:41:22;;;;;;;7.60;7.20;;;12.90;99.90;;;;;;5009652;28;20202;-77
2020/12/22 08:43:52;;;;;;;7.07;6.67;;;13.00;99.90;;;;;;5010741;28;20585;-77
2020/12/22 08:46:19;;;;;;;8.83;8.33;;;13.00;99.90;;;;;;5010278;28;20205;-77
2020/12/22 08:48:46;;;;;;;7.03;6.70;;;13.10;99.90;;;;;;5012193;28;20223;-77
2020/12/22 08:51:25;;;;;;;7.90;7.50;;;13.10;99.90;;;;;;5015784;28;20227;-78
2020/12/22 08:53:53;;;;;;;5.70;5.40;;;13.00;99.90;;;;;;5011841;28;20233;-77
2020/12/22 08:56:23;;;;;;;6.77;6.40;;;13.00;99.90;;;;;;5015467;28;20197;-77
2020/12/22 08:58:52;;;;;;;11.30;10.70;;;13.00;99.90;;;;;;5009170;28;20217;-77
2020/12/22 09:01:19;;;;;;;11.97;11.37;;;12.90;99.90;;;;;;5013921;28;20234;-77
2020/12/22 09:03:50;;;;;;;11.93;11.33;;;12.90;99.90;;;;;;5012628;28;20247;-77
2020/12/22 09:06:17;;;;;;;12.60;11.90;;;12.90;99.90;;;;;;5016658;28;20663;-77
2020/12/22 09:08:45;;;;;;;10.53;9.97;;;12.90;99.90;;;;;;5011981;28;20221;-77
2020/12/22 09:11:19;;;;;;;7.70;7.23;;;12.90;99.90;;;;;;5010359;28;20610;-77
2020/12/22 09:13:45;;;;;;;10.20;9.60;;;12.90;99.90;;;;;;5015794;28;20237;-77
2020/12/22 09:16:12;;;;;;;7.00;6.60;;;12.90;99.90;;;;;;5008957;28;20297;-77
2020/12/22 09:18:38;;;;;;;5.30;5.00;;;12.90;99.90;;;;;;5013163;28;20250;-78
2020/12/22 09:21:07;;;;;;;7.43;7.07;;;12.90;99.90;;;;;;5005478;28;20233;-77
2020/12/22 09:23:44;;;;;;;5.57;5.27;;;12.90;99.90;;;;;;5009091;28;20191;-78
2020/12/22 09:26:11;;;;;;;5.80;5.50;;;12.90;99.90;;;;;;5009076;28;20218;-77
2020/12/22 09:28:37;;;;;;;5.90;5.60;;;12.90;99.90;;;;;;5009303;28;20262;-77
2020/12/22 09:31:03;;;;;;;5.80;5.50;;;12.80;99.90;;;;;;5008857;28;20269;-77
2020/12/22 09:33:29;;;;;;;5.97;5.60;;;12.80;99.90;;;;;;5008385;28;20228;-77
2020/12/22 09:35:56;;;;;;;5.60;5.30;;;12.80;99.90;;;;;;5009620;28;20232;-77
2020/12/22 09:38:22;;;;;;;12.13;11.50;;;12.70;99.90;;;;;;5007013;28;20242;-77
2020/12/22 09:40:49;;;;;;;12.83;12.13;;;12.70;99.90;;;;;;5012590;28;20209;-77
2020/12/22 09:43:15;;;;;;;13.00;12.30;;;12.60;99.90;;;;;;5010159;28;20569;-78
2020/12/22 09:45:41;;;;;;;12.60;11.90;;;12.60;99.90;;;;;;5009802;28;20633;-77
2020/12/22 09:48:08;;;;;;;12.20;11.50;;;12.50;99.90;;;;;;5013312;28;20248;-78
2020/12/22 09:50:34;;;;;;;12.13;11.43;;;12.50;99.90;;;;;;5008014;28;20231;-77
2020/12/22 09:53:00;;;;;;;12.27;11.57;;;12.50;99.90;;;;;;5010175;28;20209;-77
2020/12/22 09:55:26;;;;;;;12.07;11.37;;;12.60;99.90;;;;;;5018120;28;20224;-78
2020/12/22 09:57:53;;;;;;;12.40;11.80;;;12.70;99.90;;;;;;5015251;28;20250;-77
2020/12/22 10:00:20;;;;;;;12.77;12.07;;;12.70;99.90;;;;;;5007951;28;20193;-77
2020/12/22 10:02:46;;;;;;;12.13;11.50;;;12.80;99.90;;;;;;5008566;28;20200;-77
2020/12/22 10:05:12;;;;;;;12.43;11.83;;;12.90;99.90;;;;;;5008010;28;20686;-78
2020/12/22 10:07:39;;;;;;;12.60;11.90;;;12.90;99.90;;;;;;5012110;28;20261;-78
2020/12/22 10:10:05;;;;;;;11.63;11.03;;;13.00;99.90;;;;;;5008770;28;20231;-78
2020/12/22 10:12:31;;;;;;;11.90;11.30;;;13.00;99.90;;;;;;5013360;28;20236;-78
2020/12/22 10:14:58;;;;;;;12.17;11.47;;;13.10;99.90;;;;;;5006768;28;20226;-78
2020/12/22 10:17:24;;;;;;;12.20;11.50;;;13.10;99.90;;;;;;5008790;28;20242;-77
2020/12/22 10:19:51;;;;;;;12.00;11.40;;;13.20;99.90;;;;;;5006988;28;20218;-77
2020/12/22 10:22:17;;;;;;;12.27;11.57;;;13.30;99.90;;;;;;5007283;28;20241;-77
2020/12/22 10:24:43;;;;;;;12.50;11.80;;;13.40;99.90;;;;;;5009586;28;20281;-77
2020/12/22 10:27:09;;;;;;;12.03;11.43;;;13.50;99.90;;;;;;5004645;28;20641;-77
2020/12/22 10:29:36;;;;;;;12.30;11.70;;;13.50;99.90;;;;;;5008658;28;20241;-77
2020/12/22 10:32:03;;;;;;;12.37;11.63;;;13.60;99.90;;;;;;5010209;28;20234;-77
2020/12/22 10:34:29;;;;;;;12.53;11.83;;;13.60;99.90;;;;;;5010773;28;20789;-78
2020/12/22 10:36:56;;;;;;;11.80;11.20;;;13.60;99.90;;;;;;5006706;28;20233;-77
2020/12/22 10:39:23;;;;;;;11.60;11.00;;;13.60;99.90;;;;;;5012750;28;20223;-77
2020/12/22 10:41:49;;;;;;;11.70;11.10;;;13.60;99.90;;;;;;5008797;28;20725;-77
2020/12/22 10:44:15;;;;;;;11.70;11.10;;;13.60;99.90;;;;;;5006648;28;20281;-77
2020/12/22 10:46:46;;;;;;;11.30;10.70;;;13.70;99.90;;;;;;5007715;28;20230;-77
2020/12/22 10:49:13;;;;;;;12.30;11.60;;;13.70;99.90;;;;;;5005872;28;20301;-78
2020/12/22 10:51:39;;;;;;;12.27;11.57;;;13.70;99.90;;;;;;5010017;28;20235;-78
2020/12/22 10:54:06;;;;;;;12.20;11.60;;;13.70;99.90;;;;;;5006052;28;20197;-78
2020/12/22 10:56:32;;;;;;;12.20;11.60;;;13.70;99.90;;;;;;5012665;28;20199;-77
2020/12/22 10:59:00;;;;;;;12.30;11.70;;;13.70;99.90;;;;;;5011722;28;20248;-77
2020/12/22 11:01:27;;;;;;;12.30;11.67;;;13.70;99.90;;;;;;5005562;28;20198;-77
2020/12/22 11:03:53;;;;;;;12.07;11.47;;;13.70;99.90;;;;;;5006544;28;20290;-77
2020/12/22 11:06:29;;;;;;;11.90;11.30;;;13.70;99.90;;;;;;5006028;28;20218;-77
2020/12/22 11:08:55;;;;;;;12.60;11.90;;;13.60;99.90;;;;;;5007365;28;20214;-78
2020/12/22 11:11:23;;;;;;;12.47;11.87;;;13.70;99.90;;;;;;5004785;28;20668;-78
2020/12/22 11:13:50;;;;;;;12.40;11.77;;;13.60;99.90;;;;;;5010023;28;20199;-78
2020/12/22 11:16:16;;;;;;;11.70;11.10;;;13.60;99.90;;;;;;5006378;28;20217;-77
2020/12/22 11:18:42;;;;;;;12.10;11.47;;;13.60;99.90;;;;;;5014897;28;20265;-78
2020/12/22 11:21:09;;;;;;;12.33;11.70;;;13.60;99.90;;;;;;5007150;28;20240;-77
2020/12/22 11:23:36;;;;;;;12.30;11.60;;;13.60;99.90;;;;;;5005930;28;20647;-78
2020/12/22 11:26:03;;;;;;;12.60;11.90;;;13.70;99.90;;;;;;5007681;28;20238;-78
2020/12/22 11:28:29;;;;;;;12.00;11.40;;;13.70;99.90;;;;;;5013490;28;20613;-77
2020/12/22 11:30:56;;;;;;;12.10;11.40;;;13.80;99.90;;;;;;5011333;28;20616;-78
2020/12/22 11:33:22;;;;;;;11.67;11.07;;;13.80;99.90;;;;;;5007958;28;20200;-77
2020/12/22 11:35:48;;;;;;;11.50;10.90;;;13.90;99.90;;;;;;5007962;28;20636;-77
2020/12/22 11:38:15;;;;;;;12.07;11.47;;;13.90;99.90;;;;;;5007223;28;20705;-78
2020/12/22 11:40:42;;;;;;;11.83;11.23;;;13.90;99.90;;;;;;5010680;28;20743;-78
2020/12/22 11:43:09;;;;;;;11.30;10.70;;;13.90;99.90;;;;;;5012628;28;20680;-77
2020/12/22 11:45:35;;;;;;;12.27;11.67;;;13.80;99.90;;;;;;5003677;28;20204;-77
2020/12/22 11:48:01;;;;;;;5.03;4.83;;;13.90;99.90;;;;;;5011382;28;20291;-77
2020/12/22 11:50:28;;;;;;;5.30;5.00;;;13.90;99.90;;;;;;5007439;28;20282;-77
2020/12/22 11:52:54;;;;;;;5.00;4.80;;;14.00;99.90;;;;;;5007544;28;20232;-78
2020/12/22 11:55:20;;;;;;;4.70;4.40;;;14.00;99.90;;;;;;5008988;28;20267;-78
2020/12/22 11:57:47;;;;;;;5.37;5.03;;;14.10;99.90;;;;;;5011819;28;20220;-78
2020/12/22 12:00:14;;;;;;;5.80;5.47;;;14.10;99.90;;;;;;5007448;28;20246;-77
2020/12/22 12:02:40;;;;;;;6.17;5.70;;;14.10;99.90;;;;;;5004572;28;20226;-77
2020/12/22 12:05:06;;;;;;;6.20;5.80;;;14.10;99.90;;;;;;5011377;28;20226;-77
2020/12/22 12:07:32;;;;;;;5.00;4.70;;;14.10;99.90;;;;;;5015672;28;20252;-77
2020/12/22 12:10:01;;;;;;;5.80;5.40;;;14.10;99.90;;;;;;5004494;28;20692;-77
2020/12/22 12:12:28;;;;;;;5.70;5.40;;;14.10;99.90;;;;;;5011069;28;20283;-77
2020/12/22 12:14:55;;;;;;;5.77;5.47;;;14.10;99.90;;;;;;5013387;28;20200;-78
2020/12/22 12:17:21;;;;;;;5.90;5.50;;;14.00;99.90;;;;;;5018423;28;20572;-77
2020/12/22 12:19:47;;;;;;;5.20;4.90;;;14.00;99.90;;;;;;5017031;28;20208;-78
2020/12/22 12:22:14;;;;;;;6.10;5.80;;;14.00;99.90;;;;;;5018081;28;20232;-77
2020/12/22 12:24:40;;;;;;;5.50;5.20;;;14.10;99.90;;;;;;5011321;28;20279;-78
2020/12/22 12:27:06;;;;;;;5.93;5.63;;;14.20;99.90;;;;;;5030796;28;20231;-77
2020/12/22 12:29:32;;;;;;;6.67;6.33;;;14.20;99.90;;;;;;5004541;28;20261;-78
2020/12/22 12:31:59;;;;;;;7.50;7.10;;;14.20;99.90;;;;;;5010193;28;20239;-77
2020/12/22 12:34:26;;;;;;;8.00;7.60;;;14.30;99.90;;;;;;5008581;28;20277;-78
2020/12/22 12:36:53;;;;;;;5.03;4.73;;;14.20;99.90;;;;;;5009778;28;20284;-78
2020/12/22 12:39:19;;;;;;;5.10;4.80;;;14.20;99.90;;;;;;5013816;28;20219;-77
2020/12/22 12:41:49;;;;;;;5.43;5.03;;;14.20;99.90;;;;;;5013619;28;20212;-78
2020/12/22 12:44:15;;;;;;;5.07;4.77;;;14.20;99.90;;;;;;5008977;28;20210;-77